sensor_id;sensor_type;location;lat;lon;timestamp;pressure;altitude;pressure_sealevel;temperature;humidity
59787;BME280;45672;51.612;5.536;2023-04-21T00:02:03;101333.84;;;6.92;100.00
59787;BME280;45672;51.612;5.536;2023-04-21T00:04:28;101331.69;;;6.86;100.00
59787;BME280;45672;51.612;5.536;2023-04-21T00:06:53;101326.28;;;6.87;100.00
59787;BME280;45672;51.612;5.536;2023-04-21T00:09:20;101321.94;;;6.86;100.00
59787;BME280;45672;51.612;5.536;2023-04-21T00:11:45;101317.28;;;6.79;100.00
59787;BME280;45672;51.612;5.536;2023-04-21T00:14:10;101305.97;;;6.77;100.00
59787;BME280;45672;51.612;5.536;2023-04-21T00:16:36;101302.59;;;6.75;100.00
59787;BME280;45672;51.612;5.536;2023-04-21T00:19:01;101300.06;;;6.73;100.00
59787;BME280;45672;51.612;5.536;2023-04-21T00:21:31;101313.53;;;6.70;100.00
59787;BME280;45672;51.612;5.536;2023-04-21T00:23:56;101297.78;;;6.68;100.00
59787;BME280;45672;51.612;5.536;2023-04-21T00:26:21;101290.69;;;6.69;100.00
59787;BME280;45672;51.612;5.536;2023-04-21T00:28:47;101281.66;;;6.60;100.00
59787;BME280;45672;51.612;5.536;2023-04-21T00:31:12;101282.63;;;6.59;100.00
59787;BME280;45672;51.612;5.536;2023-04-21T00:33:38;101284.56;;;6.57;100.00
59787;BME280;45672;51.612;5.536;2023-04-21T00:36:03;101290.69;;;6.58;100.00
59787;BME280;45672;51.612;5.536;2023-04-21T00:38:29;101291.19;;;6.63;100.00
59787;BME280;45672;51.612;5.536;2023-04-21T00:40:54;101278.31;;;6.58;100.00
59787;BME280;45672;51.612;5.536;2023-04-21T00:43:20;101275.66;;;6.58;100.00
59787;BME280;45672;51.612;5.536;2023-04-21T00:45:45;101273.03;;;6.58;100.00
59787;BME280;45672;51.612;5.536;2023-04-21T00:48:13;101274.81;;;6.58;100.00
59787;BME280;45672;51.612;5.536;2023-04-21T00:50:39;101286.97;;;6.60;100.00
59787;BME280;45672;51.612;5.536;2023-04-21T00:53:04;101279.03;;;6.60;100.00
59787;BME280;45672;51.612;5.536;2023-04-21T00:55:30;101287.91;;;6.59;100.00
59787;BME280;45672;51.612;5.536;2023-04-21T00:57:55;101272.53;;;6.53;100.00
59787;BME280;45672;51.612;5.536;2023-04-21T01:00:24;101275.66;;;6.58;100.00
59787;BME280;45672;51.612;5.536;2023-04-21T01:02:50;101273.25;;;6.55;100.00
59787;BME280;45672;51.612;5.536;2023-04-21T01:05:15;101276.00;;;6.53;100.00
59787;BME280;45672;51.612;5.536;2023-04-21T01:07:42;101268.94;;;6.54;100.00
59787;BME280;45672;51.612;5.536;2023-04-21T01:10:08;101278.41;;;6.56;100.00
59787;BME280;45672;51.612;5.536;2023-04-21T01:12:41;101276.25;;;6.50;100.00
59787;BME280;45672;51.612;5.536;2023-04-21T01:15:07;101272.66;;;6.51;100.00
59787;BME280;45672;51.612;5.536;2023-04-21T01:17:32;101264.84;;;6.50;100.00
59787;BME280;45672;51.612;5.536;2023-04-21T01:20:05;101267.47;;;6.50;100.00
59787;BME280;45672;51.612;5.536;2023-04-21T01:22:33;101265.78;;;6.49;100.00
59787;BME280;45672;51.612;5.536;2023-04-21T01:25:01;101253.53;;;6.48;100.00
59787;BME280;45672;51.612;5.536;2023-04-21T01:27:27;101253.06;;;6.54;100.00
59787;BME280;45672;51.612;5.536;2023-04-21T01:29:52;101261.72;;;6.56;100.00
59787;BME280;45672;51.612;5.536;2023-04-21T01:32:20;101264.34;;;6.56;100.00
59787;BME280;45672;51.612;5.536;2023-04-21T01:34:46;101250.91;;;6.59;100.00
59787;BME280;45672;51.612;5.536;2023-04-21T01:37:14;101259.81;;;6.58;100.00
59787;BME280;45672;51.612;5.536;2023-04-21T01:39:42;101264.97;;;6.60;100.00
59787;BME280;45672;51.612;5.536;2023-04-21T01:42:07;101244.28;;;6.53;100.00
59787;BME280;45672;51.612;5.536;2023-04-21T01:44:33;101244.66;;;6.60;100.00
59787;BME280;45672;51.612;5.536;2023-04-21T01:46:59;101244.16;;;6.55;100.00
59787;BME280;45672;51.612;5.536;2023-04-21T01:49:24;101231.91;;;6.54;100.00
59787;BME280;45672;51.612;5.536;2023-04-21T01:51:50;101233.38;;;6.58;100.00
59787;BME280;45672;51.612;5.536;2023-04-21T01:54:15;101233.97;;;6.62;100.00
59787;BME280;45672;51.612;5.536;2023-04-21T01:56:40;101223.25;;;6.63;100.00
59787;BME280;45672;51.612;5.536;2023-04-21T01:59:06;101227.97;;;6.60;100.00
59787;BME280;45672;51.612;5.536;2023-04-21T02:01:31;101226.16;;;6.60;100.00
59787;BME280;45672;51.612;5.536;2023-04-21T02:03:56;101218.69;;;6.54;100.00
59787;BME280;45672;51.612;5.536;2023-04-21T02:06:22;101224.00;;;6.54;100.00
59787;BME280;45672;51.612;5.536;2023-04-21T02:08:47;101213.41;;;6.54;100.00
59787;BME280;45672;51.612;5.536;2023-04-21T02:11:12;101201.16;;;6.53;100.00
59787;BME280;45672;51.612;5.536;2023-04-21T02:13:37;101192.28;;;6.54;100.00
59787;BME280;45672;51.612;5.536;2023-04-21T02:16:03;101199.00;;;6.47;100.00
59787;BME280;45672;51.612;5.536;2023-04-21T02:18:28;101196.44;;;6.56;100.00
59787;BME280;45672;51.612;5.536;2023-04-21T02:20:54;101199.09;;;6.56;100.00
59787;BME280;45672;51.612;5.536;2023-04-21T02:23:20;101190.44;;;6.54;100.00
59787;BME280;45672;51.612;5.536;2023-04-21T02:25:45;101196.56;;;6.55;100.00
59787;BME280;45672;51.612;5.536;2023-04-21T02:28:11;101194.91;;;6.54;100.00
59787;BME280;45672;51.612;5.536;2023-04-21T02:30:36;101191.28;;;6.55;100.00
59787;BME280;45672;51.612;5.536;2023-04-21T02:33:01;101195.25;;;6.49;100.00
59787;BME280;45672;51.612;5.536;2023-04-21T02:35:27;101195.25;;;6.49;100.00
59787;BME280;45672;51.612;5.536;2023-04-21T02:37:52;101193.09;;;6.54;100.00
59787;BME280;45672;51.612;5.536;2023-04-21T02:40:17;101192.47;;;6.62;100.00
59787;BME280;45672;51.612;5.536;2023-04-21T02:42:43;101189.13;;;6.60;100.00
59787;BME280;45672;51.612;5.536;2023-04-21T02:45:08;101183.22;;;6.56;100.00
59787;BME280;45672;51.612;5.536;2023-04-21T02:47:34;101178.44;;;6.50;100.00
59787;BME280;45672;51.612;5.536;2023-04-21T02:49:59;101169.56;;;6.51;100.00
59787;BME280;45672;51.612;5.536;2023-04-21T02:52:25;101173.97;;;6.51;100.00
59787;BME280;45672;51.612;5.536;2023-04-21T02:54:50;101168.69;;;6.51;100.00
59787;BME280;45672;51.612;5.536;2023-04-21T02:57:16;101164.50;;;6.48;100.00
59787;BME280;45672;51.612;5.536;2023-04-21T02:59:41;101167.03;;;6.50;100.00
59787;BME280;45672;51.612;5.536;2023-04-21T03:02:06;101170.50;;;6.50;100.00
59787;BME280;45672;51.612;5.536;2023-04-21T03:04:32;101165.72;;;6.44;100.00
59787;BME280;45672;51.612;5.536;2023-04-21T03:06:58;101173.16;;;6.50;100.00
59787;BME280;45672;51.612;5.536;2023-04-21T03:09:23;101173.03;;;6.52;100.00
59787;BME280;45672;51.612;5.536;2023-04-21T03:11:48;101182.53;;;6.54;100.00
59787;BME280;45672;51.612;5.536;2023-04-21T03:14:13;101169.31;;;6.54;100.00
59787;BME280;45672;51.612;5.536;2023-04-21T03:16:39;101173.75;;;6.54;100.00
59787;BME280;45672;51.612;5.536;2023-04-21T03:19:04;101173.88;;;6.52;100.00
59787;BME280;45672;51.612;5.536;2023-04-21T03:21:29;101173.03;;;6.52;100.00
59787;BME280;45672;51.612;5.536;2023-04-21T03:23:56;101168.59;;;6.52;100.00
59787;BME280;45672;51.612;5.536;2023-04-21T03:26:21;101155.72;;;6.48;100.00
59787;BME280;45672;51.612;5.536;2023-04-21T03:28:46;101154.16;;;6.45;100.00
59787;BME280;45672;51.612;5.536;2023-04-21T03:31:11;101159.69;;;6.42;100.00
59787;BME280;45672;51.612;5.536;2023-04-21T03:33:37;101154.66;;;6.39;100.00
59787;BME280;45672;51.612;5.536;2023-04-21T03:36:02;101147.19;;;6.33;100.00
59787;BME280;45672;51.612;5.536;2023-04-21T03:38:28;101150.69;;;6.33;100.00
59787;BME280;45672;51.612;5.536;2023-04-21T03:40:53;101151.50;;;6.34;100.00
59787;BME280;45672;51.612;5.536;2023-04-21T03:43:19;101154.88;;;6.36;100.00
59787;BME280;45672;51.612;5.536;2023-04-21T03:45:44;101151.28;;;6.37;100.00
59787;BME280;45672;51.612;5.536;2023-04-21T03:48:09;101152.94;;;6.38;100.00
59787;BME280;45672;51.612;5.536;2023-04-21T03:50:35;101146.00;;;6.37;100.00
59787;BME280;45672;51.612;5.536;2023-04-21T03:53:00;101151.28;;;6.37;100.00
59787;BME280;45672;51.612;5.536;2023-04-21T03:55:25;101132.44;;;6.30;100.00
59787;BME280;45672;51.612;5.536;2023-04-21T03:57:51;101143.69;;;6.32;100.00
59787;BME280;45672;51.612;5.536;2023-04-21T04:00:16;101137.00;;;6.28;100.00
59787;BME280;45672;51.612;5.536;2023-04-21T04:02:41;101156.34;;;6.29;100.00
59787;BME280;45672;51.612;5.536;2023-04-21T04:05:07;101153.06;;;6.25;100.00
59787;BME280;45672;51.612;5.536;2023-04-21T04:07:34;101152.94;;;6.27;100.00
59787;BME280;45672;51.612;5.536;2023-04-21T04:09:59;101160.03;;;6.26;100.00
59787;BME280;45672;51.612;5.536;2023-04-21T04:12:24;101160.03;;;6.26;100.00
59787;BME280;45672;51.612;5.536;2023-04-21T04:14:50;101160.28;;;6.23;100.00
59787;BME280;45672;51.612;5.536;2023-04-21T04:17:15;101157.66;;;6.23;100.00
59787;BME280;45672;51.612;5.536;2023-04-21T04:19:41;101158.84;;;6.19;100.00
59787;BME280;45672;51.612;5.536;2023-04-21T04:22:06;101164.84;;;6.21;100.00
59787;BME280;45672;51.612;5.536;2023-04-21T04:24:32;101160.78;;;6.17;100.00
59787;BME280;45672;51.612;5.536;2023-04-21T04:26:58;101158.34;;;6.14;100.00
59787;BME280;45672;51.612;5.536;2023-04-21T04:29:24;101161.84;;;6.14;100.00
59787;BME280;45672;51.612;5.536;2023-04-21T04:31:49;101151.53;;;6.11;100.00
59787;BME280;45672;51.612;5.536;2023-04-21T04:34:15;101154.25;;;6.10;100.00
59787;BME280;45672;51.612;5.536;2023-04-21T04:36:41;101157.88;;;6.09;100.00
59787;BME280;45672;51.612;5.536;2023-04-21T04:39:07;101154.38;;;6.08;100.00
59787;BME280;45672;51.612;5.536;2023-04-21T04:41:37;101153.53;;;6.08;100.00
59787;BME280;45672;51.612;5.536;2023-04-21T04:44:02;101155.34;;;6.07;100.00
59787;BME280;45672;51.612;5.536;2023-04-21T04:46:29;101149.22;;;6.07;100.00
59787;BME280;45672;51.612;5.536;2023-04-21T04:48:54;101163.28;;;6.07;100.00
59787;BME280;45672;51.612;5.536;2023-04-21T04:51:20;101160.03;;;6.03;100.00
59787;BME280;45672;51.612;5.536;2023-04-21T04:53:45;101160.03;;;6.03;100.00
59787;BME280;45672;51.612;5.536;2023-04-21T04:56:10;101159.06;;;6.04;100.00
59787;BME280;45672;51.612;5.536;2023-04-21T04:58:36;101162.41;;;6.07;100.00
59787;BME280;45672;51.612;5.536;2023-04-21T05:01:12;101156.19;;;6.08;100.00
59787;BME280;45672;51.612;5.536;2023-04-21T05:03:37;101163.16;;;6.09;100.00
59787;BME280;45672;51.612;5.536;2023-04-21T05:06:02;101166.63;;;6.09;100.00
59787;BME280;45672;51.612;5.536;2023-04-21T05:08:28;101158.81;;;6.08;100.00
59787;BME280;45672;51.612;5.536;2023-04-21T05:10:53;101176.25;;;6.10;100.00
59787;BME280;45672;51.612;5.536;2023-04-21T05:13:18;101176.97;;;6.12;100.00
59787;BME280;45672;51.612;5.536;2023-04-21T05:15:43;101159.53;;;6.10;100.00
59787;BME280;45672;51.612;5.536;2023-04-21T05:18:09;101168.91;;;6.14;100.00
59787;BME280;45672;51.612;5.536;2023-04-21T05:20:35;101180.22;;;6.16;100.00
59787;BME280;45672;51.612;5.536;2023-04-21T05:23:00;101181.66;;;6.20;100.00
59787;BME280;45672;51.612;5.536;2023-04-21T05:25:26;101179.97;;;6.19;100.00
59787;BME280;45672;51.612;5.536;2023-04-21T05:27:51;101182.38;;;6.22;100.00
59787;BME280;45672;51.612;5.536;2023-04-21T05:30:17;101178.66;;;6.25;100.00
59787;BME280;45672;51.612;5.536;2023-04-21T05:32:42;101178.78;;;6.23;100.00
59787;BME280;45672;51.612;5.536;2023-04-21T05:35:07;101188.16;;;6.27;100.00
59787;BME280;45672;51.612;5.536;2023-04-21T05:37:33;101191.50;;;6.29;100.00
59787;BME280;45672;51.612;5.536;2023-04-21T05:39:58;101191.28;;;6.32;100.00
59787;BME280;45672;51.612;5.536;2023-04-21T05:42:23;101193.34;;;6.40;100.00
59787;BME280;45672;51.612;5.536;2023-04-21T05:44:49;101190.81;;;6.50;100.00
59787;BME280;45672;51.612;5.536;2023-04-21T05:47:14;101198.88;;;6.60;100.00
59787;BME280;45672;51.612;5.536;2023-04-21T05:49:40;101193.94;;;6.66;100.00
59787;BME280;45672;51.612;5.536;2023-04-21T05:52:08;101203.06;;;6.73;100.00
59787;BME280;45672;51.612;5.536;2023-04-21T05:54:34;101198.75;;;6.72;100.00
59787;BME280;45672;51.612;5.536;2023-04-21T05:56:59;101201.03;;;6.77;100.00
59787;BME280;45672;51.612;5.536;2023-04-21T05:59:25;101204.50;;;6.78;100.00
59787;BME280;45672;51.612;5.536;2023-04-21T06:01:50;101201.13;;;6.87;100.00
59787;BME280;45672;51.612;5.536;2023-04-21T06:04:16;101197.03;;;6.94;100.00
59787;BME280;45672;51.612;5.536;2023-04-21T06:06:41;101203.16;;;6.95;100.00
59787;BME280;45672;51.612;5.536;2023-04-21T06:09:08;101188.97;;;6.96;100.00
59787;BME280;45672;51.612;5.536;2023-04-21T06:11:33;101194.88;;;6.99;100.00
59787;BME280;45672;51.612;5.536;2023-04-21T06:13:59;101190.03;;;7.04;100.00
59787;BME280;45672;51.612;5.536;2023-04-21T06:16:25;101189.44;;;7.12;100.00
59787;BME280;45672;51.612;5.536;2023-04-21T06:18:51;101194.22;;;7.18;100.00
59787;BME280;45672;51.612;5.536;2023-04-21T06:21:16;101195.53;;;7.24;100.00
59787;BME280;45672;51.612;5.536;2023-04-21T06:23:41;101197.88;;;7.38;100.00
59787;BME280;45672;51.612;5.536;2023-04-21T06:26:07;101188.72;;;7.42;100.00
59787;BME280;45672;51.612;5.536;2023-04-21T06:28:34;101188.81;;;7.52;100.00
59787;BME280;45672;51.612;5.536;2023-04-21T06:31:00;101191.03;;;7.68;100.00
59787;BME280;45672;51.612;5.536;2023-04-21T06:33:26;101189.44;;;7.98;100.00
59787;BME280;45672;51.612;5.536;2023-04-21T06:35:52;101189.66;;;8.37;100.00
59787;BME280;45672;51.612;5.536;2023-04-21T06:38:18;101200.34;;;8.88;100.00
59787;BME280;45672;51.612;5.536;2023-04-21T06:40:43;101196.25;;;9.34;100.00
59787;BME280;45672;51.612;5.536;2023-04-21T06:43:09;101194.72;;;9.71;100.00
59787;BME280;45672;51.612;5.536;2023-04-21T06:45:34;101193.28;;;10.06;100.00
59787;BME280;45672;51.612;5.536;2023-04-21T06:47:59;101194.44;;;10.50;100.00
59787;BME280;45672;51.612;5.536;2023-04-21T06:50:25;101195.34;;;10.97;100.00
59787;BME280;45672;51.612;5.536;2023-04-21T06:52:50;101202.03;;;11.01;100.00
59787;BME280;45672;51.612;5.536;2023-04-21T06:55:16;101200.09;;;11.21;100.00
59787;BME280;45672;51.612;5.536;2023-04-21T06:57:41;101201.34;;;11.63;100.00
59787;BME280;45672;51.612;5.536;2023-04-21T07:00:07;101202.75;;;11.75;100.00
59787;BME280;45672;51.612;5.536;2023-04-21T07:02:32;101205.88;;;12.06;100.00
59787;BME280;45672;51.612;5.536;2023-04-21T07:04:57;101204.91;;;12.42;100.00
59787;BME280;45672;51.612;5.536;2023-04-21T07:07:23;101210.19;;;12.60;100.00
59787;BME280;45672;51.612;5.536;2023-04-21T07:09:48;101214.13;;;12.48;100.00
59787;BME280;45672;51.612;5.536;2023-04-21T07:12:13;101210.47;;;11.96;100.00
59787;BME280;45672;51.612;5.536;2023-04-21T07:14:39;101209.91;;;12.11;100.00
59787;BME280;45672;51.612;5.536;2023-04-21T07:17:04;101194.28;;;12.50;100.00
59787;BME280;45672;51.612;5.536;2023-04-21T07:19:30;101205.69;;;12.61;100.00
59787;BME280;45672;51.612;5.536;2023-04-21T07:21:55;101212.50;;;12.02;100.00
59787;BME280;45672;51.612;5.536;2023-04-21T07:24:20;101209.47;;;11.61;100.00
59787;BME280;45672;51.612;5.536;2023-04-21T07:26:46;101216.97;;;12.81;100.00
59787;BME280;45672;51.612;5.536;2023-04-21T07:29:11;101202.25;;;13.19;98.83
59787;BME280;45672;51.612;5.536;2023-04-21T07:31:36;101207.78;;;12.75;98.10
59787;BME280;45672;51.612;5.536;2023-04-21T07:34:02;101204.94;;;12.76;100.00
59787;BME280;45672;51.612;5.536;2023-04-21T07:36:27;101201.56;;;13.25;97.80
59787;BME280;45672;51.612;5.536;2023-04-21T07:38:52;101198.31;;;13.73;96.07
59787;BME280;45672;51.612;5.536;2023-04-21T07:41:18;101193.66;;;14.56;88.86
59787;BME280;45672;51.612;5.536;2023-04-21T07:43:43;101201.78;;;14.87;86.58
59787;BME280;45672;51.612;5.536;2023-04-21T07:46:09;101201.91;;;14.94;86.87
59787;BME280;45672;51.612;5.536;2023-04-21T07:48:38;101199.66;;;15.83;85.18
59787;BME280;45672;51.612;5.536;2023-04-21T07:51:04;101203.25;;;16.88;77.64
59787;BME280;45672;51.612;5.536;2023-04-21T07:53:29;101208.47;;;17.70;71.95
59787;BME280;45672;51.612;5.536;2023-04-21T07:55:54;101206.69;;;16.97;70.71
59787;BME280;45672;51.612;5.536;2023-04-21T07:58:20;101208.41;;;17.05;75.55
59787;BME280;45672;51.612;5.536;2023-04-21T08:00:46;101207.38;;;17.64;69.75
59787;BME280;45672;51.612;5.536;2023-04-21T08:03:11;101206.13;;;18.10;65.54
59787;BME280;45672;51.612;5.536;2023-04-21T08:05:36;101202.06;;;18.98;67.03
59787;BME280;45672;51.612;5.536;2023-04-21T08:08:02;101201.81;;;19.88;58.22
59787;BME280;45672;51.612;5.536;2023-04-21T08:10:27;101205.72;;;20.39;57.52
59787;BME280;45672;51.612;5.536;2023-04-21T08:12:52;101206.69;;;21.16;58.46
59787;BME280;45672;51.612;5.536;2023-04-21T08:15:18;101208.13;;;22.08;50.22
59787;BME280;45672;51.612;5.536;2023-04-21T08:17:43;101204.53;;;21.64;52.21
59787;BME280;45672;51.612;5.536;2023-04-21T08:20:09;101200.25;;;20.65;51.95
59787;BME280;45672;51.612;5.536;2023-04-21T08:22:34;101207.38;;;20.40;51.30
59787;BME280;45672;51.612;5.536;2023-04-21T08:25:01;101205.53;;;19.73;54.35
59787;BME280;45672;51.612;5.536;2023-04-21T08:27:27;101206.81;;;19.84;55.29
59787;BME280;45672;51.612;5.536;2023-04-21T08:29:52;101201.56;;;20.29;54.13
59787;BME280;45672;51.612;5.536;2023-04-21T08:32:17;101182.13;;;20.66;48.96
59787;BME280;45672;51.612;5.536;2023-04-21T08:34:48;101187.34;;;21.13;50.18
59787;BME280;45672;51.612;5.536;2023-04-21T08:37:14;101195.53;;;22.58;47.54
59787;BME280;45672;51.612;5.536;2023-04-21T08:39:39;101198.13;;;22.27;44.34
59787;BME280;45672;51.612;5.536;2023-04-21T08:42:07;101197.81;;;21.34;48.57
59787;BME280;45672;51.612;5.536;2023-04-21T08:44:32;101195.34;;;21.01;48.76
59787;BME280;45672;51.612;5.536;2023-04-21T08:46:58;101191.00;;;20.21;49.45
59787;BME280;45672;51.612;5.536;2023-04-21T08:49:28;101193.59;;;20.61;52.72
59787;BME280;45672;51.612;5.536;2023-04-21T08:51:54;101190.31;;;21.05;50.07
59787;BME280;45672;51.612;5.536;2023-04-21T08:54:19;101187.09;;;20.82;49.36
59787;BME280;45672;51.612;5.536;2023-04-21T08:56:47;101191.25;;;21.56;47.58
59787;BME280;45672;51.612;5.536;2023-04-21T08:59:12;101191.53;;;22.23;44.75
59787;BME280;45672;51.612;5.536;2023-04-21T09:02:15;101188.69;;;22.36;49.86
59787;BME280;45672;51.612;5.536;2023-04-21T09:04:45;101184.47;;;21.40;46.48
59787;BME280;45672;51.612;5.536;2023-04-21T09:07:11;101181.03;;;21.83;45.47
59787;BME280;45672;51.612;5.536;2023-04-21T09:10:06;101182.19;;;20.53;50.29
59787;BME280;45672;51.612;5.536;2023-04-21T09:12:31;101178.44;;;19.06;51.51
59787;BME280;45672;51.612;5.536;2023-04-21T09:14:57;101183.25;;;18.69;53.19
59787;BME280;45672;51.612;5.536;2023-04-21T09:17:30;101180.75;;;19.16;53.72
59787;BME280;45672;51.612;5.536;2023-04-21T09:20:12;101179.47;;;18.57;55.17
59787;BME280;45672;51.612;5.536;2023-04-21T09:22:38;101169.69;;;18.91;53.49
59787;BME280;45672;51.612;5.536;2023-04-21T09:25:04;101173.72;;;19.49;52.17
59787;BME280;45672;51.612;5.536;2023-04-21T09:27:29;101171.03;;;20.22;49.69
59787;BME280;45672;51.612;5.536;2023-04-21T09:30:01;101169.06;;;20.49;51.55
59787;BME280;45672;51.612;5.536;2023-04-21T09:32:27;101169.28;;;20.68;50.04
59787;BME280;45672;51.612;5.536;2023-04-21T09:34:58;101177.22;;;20.36;50.27
59787;BME280;45672;51.612;5.536;2023-04-21T09:37:24;101183.50;;;20.30;50.79
59787;BME280;45672;51.612;5.536;2023-04-21T09:39:49;101178.78;;;19.92;49.07
59787;BME280;45672;51.612;5.536;2023-04-21T09:42:15;101170.09;;;20.69;49.12
59787;BME280;45672;51.612;5.536;2023-04-21T09:44:40;101171.09;;;22.02;45.19
59787;BME280;45672;51.612;5.536;2023-04-21T09:47:09;101173.13;;;22.07;43.62
59787;BME280;45672;51.612;5.536;2023-04-21T09:49:35;101164.69;;;21.96;45.17
59787;BME280;45672;51.612;5.536;2023-04-21T09:52:05;101168.19;;;21.46;44.33
59787;BME280;45672;51.612;5.536;2023-04-21T09:54:32;101166.31;;;20.04;48.61
59787;BME280;45672;51.612;5.536;2023-04-21T09:56:59;101163.91;;;19.07;48.13
59787;BME280;45672;51.612;5.536;2023-04-21T09:59:36;101162.13;;;17.74;53.89
59787;BME280;45672;51.612;5.536;2023-04-21T10:02:05;101167.00;;;18.56;53.63
59787;BME280;45672;51.612;5.536;2023-04-21T10:04:32;101163.59;;;19.97;49.05
59787;BME280;45672;51.612;5.536;2023-04-21T10:07:01;101160.63;;;20.26;48.70
59787;BME280;45672;51.612;5.536;2023-04-21T10:09:34;101143.22;;;19.48;48.97
59787;BME280;45672;51.612;5.536;2023-04-21T10:12:02;101145.53;;;18.69;50.08
59787;BME280;45672;51.612;5.536;2023-04-21T10:14:28;101154.50;;;18.06;53.02
59787;BME280;45672;51.612;5.536;2023-04-21T10:17:00;101154.16;;;17.88;54.06
59787;BME280;45672;51.612;5.536;2023-04-21T10:19:27;101141.66;;;18.37;53.20
59787;BME280;45672;51.612;5.536;2023-04-21T10:21:56;101149.66;;;19.20;48.88
59787;BME280;45672;51.612;5.536;2023-04-21T10:24:28;101142.34;;;19.01;49.99
59787;BME280;45672;51.612;5.536;2023-04-21T10:26:56;101143.31;;;18.86;51.14
59787;BME280;45672;51.612;5.536;2023-04-21T10:29:33;101133.41;;;18.52;53.28
59787;BME280;45672;51.612;5.536;2023-04-21T10:31:58;101130.56;;;17.90;53.75
59787;BME280;45672;51.612;5.536;2023-04-21T10:47:40;101105.00;;;16.34;60.95
59787;BME280;45672;51.612;5.536;2023-04-21T10:50:14;101099.94;;;16.25;61.46
59787;BME280;45672;51.612;5.536;2023-04-21T10:52:43;101096.44;;;16.09;60.15
59787;BME280;45672;51.612;5.536;2023-04-21T10:55:09;101096.03;;;15.97;60.29
59787;BME280;45672;51.612;5.536;2023-04-21T10:57:37;101095.28;;;15.89;60.63
59787;BME280;45672;51.612;5.536;2023-04-21T11:00:05;101099.25;;;15.78;61.22
59787;BME280;45672;51.612;5.536;2023-04-21T11:02:31;101097.69;;;15.45;61.58
59787;BME280;45672;51.612;5.536;2023-04-21T11:04:57;101084.06;;;15.32;63.27
59787;BME280;45672;51.612;5.536;2023-04-21T11:07:25;101083.88;;;15.33;63.83
59787;BME280;45672;51.612;5.536;2023-04-21T11:10:00;101082.91;;;15.49;61.69
59787;BME280;45672;51.612;5.536;2023-04-21T11:12:31;101073.31;;;15.55;60.03
59787;BME280;45672;51.612;5.536;2023-04-21T11:14:57;101074.63;;;15.59;60.42
59787;BME280;45672;51.612;5.536;2023-04-21T11:17:22;101061.16;;;15.44;61.87
59787;BME280;45672;51.612;5.536;2023-04-21T11:19:51;101065.41;;;15.39;61.88
59787;BME280;45672;51.612;5.536;2023-04-21T11:22:18;101063.47;;;15.32;61.73
59787;BME280;45672;51.612;5.536;2023-04-21T11:24:44;101060.41;;;15.36;63.84
59787;BME280;45672;51.612;5.536;2023-04-21T11:27:10;101042.78;;;15.56;62.92
59787;BME280;45672;51.612;5.536;2023-04-21T11:29:37;101051.47;;;15.58;61.94
59787;BME280;45672;51.612;5.536;2023-04-21T11:32:04;101046.28;;;15.42;62.16
59787;BME280;45672;51.612;5.536;2023-04-21T11:34:30;101037.84;;;15.30;62.55
59787;BME280;45672;51.612;5.536;2023-04-21T11:36:55;101033.91;;;15.17;64.54
59787;BME280;45672;51.612;5.536;2023-04-21T11:39:21;101041.19;;;15.47;64.22
59787;BME280;45672;51.612;5.536;2023-04-21T11:41:48;101024.75;;;15.50;62.55
59787;BME280;45672;51.612;5.536;2023-04-21T11:44:38;101029.34;;;15.41;62.39
59787;BME280;45672;51.612;5.536;2023-04-21T11:47:18;101027.03;;;15.38;61.84
59787;BME280;45672;51.612;5.536;2023-04-21T11:52:23;101011.34;;;15.35;63.11
59787;BME280;45672;51.612;5.536;2023-04-21T11:55:03;101012.38;;;15.64;63.73
59787;BME280;45672;51.612;5.536;2023-04-21T11:57:29;101002.38;;;16.02;60.72
59787;BME280;45672;51.612;5.536;2023-04-21T12:00:04;101009.34;;;15.97;61.27
59787;BME280;45672;51.612;5.536;2023-04-21T12:02:34;101014.41;;;15.92;61.54
59787;BME280;45672;51.612;5.536;2023-04-21T12:05:02;101015.72;;;15.81;58.84
59787;BME280;45672;51.612;5.536;2023-04-21T12:07:29;101009.50;;;15.65;62.46
59787;BME280;45672;51.612;5.536;2023-04-21T12:09:55;100998.94;;;15.49;61.52
59787;BME280;45672;51.612;5.536;2023-04-21T12:12:21;101002.84;;;15.46;62.46
59787;BME280;45672;51.612;5.536;2023-04-21T12:14:49;101007.53;;;15.44;61.28
59787;BME280;45672;51.612;5.536;2023-04-21T12:17:15;100989.50;;;15.53;62.84
59787;BME280;45672;51.612;5.536;2023-04-21T12:19:41;100992.75;;;15.63;60.70
59787;BME280;45672;51.612;5.536;2023-04-21T12:22:09;101001.47;;;15.95;59.68
59787;BME280;45672;51.612;5.536;2023-04-21T12:24:35;100987.53;;;16.22;60.74
59787;BME280;45672;51.612;5.536;2023-04-21T12:27:00;100994.38;;;16.24;62.74
59787;BME280;45672;51.612;5.536;2023-04-21T12:29:26;100980.56;;;15.91;62.55
59787;BME280;45672;51.612;5.536;2023-04-21T12:31:52;100985.28;;;15.89;64.90
59787;BME280;45672;51.612;5.536;2023-04-21T12:34:17;100968.31;;;15.73;65.85
59787;BME280;45672;51.612;5.536;2023-04-21T12:36:42;100968.50;;;15.72;65.87
59787;BME280;45672;51.612;5.536;2023-04-21T12:39:08;100965.38;;;15.83;62.17
59787;BME280;45672;51.612;5.536;2023-04-21T12:41:34;100966.03;;;15.85;62.29
59787;BME280;45672;51.612;5.536;2023-04-21T12:43:59;100967.41;;;15.96;62.69
59787;BME280;45672;51.612;5.536;2023-04-21T12:46:24;100970.91;;;16.11;62.09
59787;BME280;45672;51.612;5.536;2023-04-21T12:48:50;100952.81;;;16.20;62.12
59787;BME280;45672;51.612;5.536;2023-04-21T12:51:16;100951.56;;;16.37;63.67
59787;BME280;45672;51.612;5.536;2023-04-21T12:53:42;100953.50;;;16.65;63.98
59787;BME280;45672;51.612;5.536;2023-04-21T12:56:07;100945.16;;;16.82;62.96
59787;BME280;45672;51.612;5.536;2023-04-21T12:58:33;100951.13;;;16.77;62.48
59787;BME280;45672;51.612;5.536;2023-04-21T13:00:58;100956.44;;;16.49;64.07
59787;BME280;45672;51.612;5.536;2023-04-21T13:03:24;100942.34;;;16.25;66.09